EPLBEPLL

Guest
Details From EPLB - Lublin
To EPLL - LODZ LUBLINEK
Flight Number -
Tags generated
Created
Modified
Stats Distance 127 nm / 235 km
Max Altitude 12,900 ft / 3,932 m
Waypoints 3
Social Downloads 2
Likes 0
Share VATSIM

Download

Looking for another format? Having issues loading an existing format? Contact us
Advertisement - Login to hide

Notes

Basic altitude profile: - Ascent Rate: 1700ft/min - Ascent Speed: 104kts - Cruise Altitude: 10000ft - Cruise Speed: 140kts - Descent Rate: 1300ft/min - Descent Speed: 130kts Options: - Use NATs: yes - Use PACOTS: no - Use low airways: yes - Use high airways: no

Route

EPLB OMAVA EPLL

ID Type Via Altitude Latitude Longitude Leg Dist Tot Dist Heading (true) Name
O EPLB APT - 0 ft / 0 m 51.23634˚ 22.70251˚ - 0 nm - Lublin
OMAVA FIX - 12,900 ft / 3,932 m 51.38389˚ 21.68806˚ 39 nm 39 nm 283° / 283° -
O EPLL APT - 0 ft / 0 m 51.72008˚ 19.39533˚ 87 nm 127 nm 284° / 282° LODZ LUBLINEK

Altitude Profile

Advertisement - Login to hide

EPLB

Details ICAO EPLB (LUZ)
Name Lublin
Region Poland
Timezone Europe/Warsaw (UTC+1.0)
Stats Elevation 633 ft / 193 m (AMSL)
Location 51.236345° 22.702508°
Runways 2
Magnetic Variation 6.073° E

METAR

EPLB 171200Z VRB02KT 9999 FEW027 BKN034 02/M01 Q1017

Decode

TAF

Not found

Departure Runways

ID Width Length Bearing (true) Bearing (mag) Surface Threshold Offset Overrun Length
06 222 ft / 68 m 3,445 ft / 1,050 m 62.25° 56.18° Grass 0 ft / 0 m 0 ft / 0 m
07 148 ft / 45 m 8,277 ft / 2,523 m 77.06° 70.99° Asphalt 72 ft / 22 m 0 ft / 0 m
24 222 ft / 68 m 3,445 ft / 1,050 m 242.26° 236.19° Grass 0 ft / 0 m 0 ft / 0 m
25 148 ft / 45 m 8,277 ft / 2,523 m 257.09° 251.02° Asphalt 66 ft / 20 m 0 ft / 0 m

EPLL

Details ICAO EPLL (LCJ)
Name LODZ LUBLINEK
Region Poland
Timezone Europe/Warsaw (UTC+1.0)
Stats Elevation 606 ft / 185 m (AMSL)
Location 51.720081° 19.395332°
Runways 2
Magnetic Variation 5.331° E

METAR

EPLL 171200Z 23005KT 9000 FEW005 SCT010CB BKN013 02/00 Q1016

Decode

TAF

TAF EPLL 171130Z 1712/1812 24004KT 6000 BKN020 PROB40 TEMPO 1712/1718 BKN009 BECMG 1716/1718 2000 BR PROB40 1718/1806 0200 FZFG OVC001 BECMG 1808/1810 3000 BR SCT015

Decode

Destination Runways

ID Width Length Bearing (true) Bearing (mag) Surface Threshold Offset Overrun Length
07L 148 ft / 45 m 8,184 ft / 2,495 m 70.76° 65.43° Concrete 0 ft / 0 m 0 ft / 0 m
07R 574 ft / 175 m 2,299 ft / 701 m 70.78° 65.45° Grass 0 ft / 0 m 0 ft / 0 m
25L 574 ft / 175 m 2,299 ft / 701 m 250.78° 245.45° Grass 0 ft / 0 m 0 ft / 0 m
25R 148 ft / 45 m 8,184 ft / 2,495 m 250.79° 245.46° Concrete 0 ft / 0 m 0 ft / 0 m

Approach Navaids

Runway Type Ident Frequency Range Bearing (true) Bearing (mag) Slope Elevation
25R Localiser ILOD 110.50 MHz 18 nm / 33 km 250.60° 245.27° - 604 ft / 184 m (AMSL)
25R Glidescope ILOD 110.50 MHz 10 nm / 19 km 250.60° 245.27° 3.00° 604 ft / 184 m (AMSL)

Popular Alternatives